sensor_id;sensor_type;location;lat;lon;timestamp;P1;durP1;ratioP1;P2;durP2;ratioP2
13291;SDS011;6714;53.056;8.690;2023-03-23T00:00:55;6.03;;;5.53;;
13291;SDS011;6714;53.056;8.690;2023-03-23T00:03:37;6.23;;;5.70;;
13291;SDS011;6714;53.056;8.690;2023-03-23T00:06:19;5.77;;;5.27;;
13291;SDS011;6714;53.056;8.690;2023-03-23T00:09:02;7.53;;;6.93;;
13291;SDS011;6714;53.056;8.690;2023-03-23T00:11:45;6.93;;;6.33;;
13291;SDS011;6714;53.056;8.690;2023-03-23T00:14:29;5.83;;;5.33;;
13291;SDS011;6714;53.056;8.690;2023-03-23T00:17:21;4.70;;;4.30;;
13291;SDS011;6714;53.056;8.690;2023-03-23T00:20:03;5.27;;;4.70;;
13291;SDS011;6714;53.056;8.690;2023-03-23T00:22:46;6.33;;;5.67;;
13291;SDS011;6714;53.056;8.690;2023-03-23T00:25:29;6.10;;;5.57;;
13291;SDS011;6714;53.056;8.690;2023-03-23T00:28:11;5.50;;;4.90;;
13291;SDS011;6714;53.056;8.690;2023-03-23T00:30:56;6.00;;;5.53;;
13291;SDS011;6714;53.056;8.690;2023-03-23T00:33:39;5.37;;;4.90;;
13291;SDS011;6714;53.056;8.690;2023-03-23T00:36:21;5.70;;;5.30;;
13291;SDS011;6714;53.056;8.690;2023-03-23T00:39:04;6.70;;;6.20;;
13291;SDS011;6714;53.056;8.690;2023-03-23T00:41:46;7.07;;;6.37;;
13291;SDS011;6714;53.056;8.690;2023-03-23T00:44:29;6.37;;;5.77;;
13291;SDS011;6714;53.056;8.690;2023-03-23T00:47:13;6.57;;;5.97;;
13291;SDS011;6714;53.056;8.690;2023-03-23T00:49:57;6.03;;;5.47;;
13291;SDS011;6714;53.056;8.690;2023-03-23T00:52:39;5.33;;;4.83;;
13291;SDS011;6714;53.056;8.690;2023-03-23T00:55:22;5.43;;;5.03;;
13291;SDS011;6714;53.056;8.690;2023-03-23T00:58:04;5.10;;;4.60;;
13291;SDS011;6714;53.056;8.690;2023-03-23T01:00:47;6.30;;;5.70;;
13291;SDS011;6714;53.056;8.690;2023-03-23T01:03:31;5.97;;;5.47;;
13291;SDS011;6714;53.056;8.690;2023-03-23T01:06:13;7.37;;;6.67;;
13291;SDS011;6714;53.056;8.690;2023-03-23T01:08:56;6.53;;;5.93;;
13291;SDS011;6714;53.056;8.690;2023-03-23T01:11:39;7.07;;;6.47;;
13291;SDS011;6714;53.056;8.690;2023-03-23T01:14:21;7.20;;;6.60;;
13291;SDS011;6714;53.056;8.690;2023-03-23T01:17:03;6.20;;;5.70;;
13291;SDS011;6714;53.056;8.690;2023-03-23T01:19:47;6.60;;;6.00;;
13291;SDS011;6714;53.056;8.690;2023-03-23T01:22:31;5.80;;;5.30;;
13291;SDS011;6714;53.056;8.690;2023-03-23T01:25:14;6.10;;;5.50;;
13291;SDS011;6714;53.056;8.690;2023-03-23T01:27:56;5.70;;;5.23;;
13291;SDS011;6714;53.056;8.690;2023-03-23T01:30:38;5.30;;;4.90;;
13291;SDS011;6714;53.056;8.690;2023-03-23T01:33:21;5.27;;;4.83;;
13291;SDS011;6714;53.056;8.690;2023-03-23T01:36:05;6.33;;;5.73;;
13291;SDS011;6714;53.056;8.690;2023-03-23T01:38:48;5.30;;;4.90;;
13291;SDS011;6714;53.056;8.690;2023-03-23T01:41:31;7.03;;;6.33;;
13291;SDS011;6714;53.056;8.690;2023-03-23T01:47:15;5.60;;;5.10;;
13291;SDS011;6714;53.056;8.690;2023-03-23T01:49:58;6.90;;;6.30;;
13291;SDS011;6714;53.056;8.690;2023-03-23T01:52:42;6.80;;;6.23;;
13291;SDS011;6714;53.056;8.690;2023-03-23T01:55:24;7.60;;;6.90;;
13291;SDS011;6714;53.056;8.690;2023-03-23T01:58:08;7.20;;;6.50;;
13291;SDS011;6714;53.056;8.690;2023-03-23T02:00:51;7.27;;;6.57;;
13291;SDS011;6714;53.056;8.690;2023-03-23T02:03:34;7.43;;;6.73;;
13291;SDS011;6714;53.056;8.690;2023-03-23T02:06:16;6.23;;;5.63;;
13291;SDS011;6714;53.056;8.690;2023-03-23T02:09:00;8.33;;;7.43;;
13291;SDS011;6714;53.056;8.690;2023-03-23T02:11:43;6.60;;;5.90;;
13291;SDS011;6714;53.056;8.690;2023-03-23T02:14:26;6.90;;;6.30;;
13291;SDS011;6714;53.056;8.690;2023-03-23T02:17:09;6.30;;;5.80;;
13291;SDS011;6714;53.056;8.690;2023-03-23T02:20:01;7.70;;;7.00;;
13291;SDS011;6714;53.056;8.690;2023-03-23T02:22:51;7.00;;;6.40;;
13291;SDS011;6714;53.056;8.690;2023-03-23T02:25:50;5.43;;;4.93;;
13291;SDS011;6714;53.056;8.690;2023-03-23T02:28:45;6.03;;;5.53;;
13291;SDS011;6714;53.056;8.690;2023-03-23T02:31:36;6.63;;;6.07;;
13291;SDS011;6714;53.056;8.690;2023-03-23T02:34:43;8.00;;;7.13;;
13291;SDS011;6714;53.056;8.690;2023-03-23T02:37:28;5.30;;;4.80;;
13291;SDS011;6714;53.056;8.690;2023-03-23T02:40:12;6.57;;;5.97;;
13291;SDS011;6714;53.056;8.690;2023-03-23T02:42:57;7.30;;;6.60;;
13291;SDS011;6714;53.056;8.690;2023-03-23T02:45:42;6.07;;;5.50;;
13291;SDS011;6714;53.056;8.690;2023-03-23T02:48:28;7.67;;;6.57;;
13291;SDS011;6714;53.056;8.690;2023-03-23T02:51:12;6.23;;;5.70;;
13291;SDS011;6714;53.056;8.690;2023-03-23T02:53:55;5.93;;;5.43;;
13291;SDS011;6714;53.056;8.690;2023-03-23T02:56:40;6.17;;;5.60;;
13291;SDS011;6714;53.056;8.690;2023-03-23T02:59:22;5.80;;;5.30;;
13291;SDS011;6714;53.056;8.690;2023-03-23T03:02:05;6.40;;;5.80;;
13291;SDS011;6714;53.056;8.690;2023-03-23T03:04:53;7.20;;;6.23;;
13291;SDS011;6714;53.056;8.690;2023-03-23T03:10:56;7.43;;;6.73;;
13291;SDS011;6714;53.056;8.690;2023-03-23T03:13:44;7.00;;;6.30;;
13291;SDS011;6714;53.056;8.690;2023-03-23T03:16:28;6.37;;;5.87;;
13291;SDS011;6714;53.056;8.690;2023-03-23T03:19:12;7.27;;;6.47;;
13291;SDS011;6714;53.056;8.690;2023-03-23T03:21:57;8.83;;;7.80;;
13291;SDS011;6714;53.056;8.690;2023-03-23T03:24:41;6.70;;;6.10;;
13291;SDS011;6714;53.056;8.690;2023-03-23T03:27:25;7.63;;;6.93;;
13291;SDS011;6714;53.056;8.690;2023-03-23T03:30:20;7.57;;;6.77;;
13291;SDS011;6714;53.056;8.690;2023-03-23T03:33:16;5.73;;;5.23;;
13291;SDS011;6714;53.056;8.690;2023-03-23T03:36:01;7.10;;;6.37;;
13291;SDS011;6714;53.056;8.690;2023-03-23T03:38:47;6.97;;;5.87;;
13291;SDS011;6714;53.056;8.690;2023-03-23T03:41:30;7.47;;;6.77;;
13291;SDS011;6714;53.056;8.690;2023-03-23T03:44:17;8.03;;;7.23;;
13291;SDS011;6714;53.056;8.690;2023-03-23T03:46:59;7.23;;;6.63;;
13291;SDS011;6714;53.056;8.690;2023-03-23T03:49:42;6.37;;;5.30;;
13291;SDS011;6714;53.056;8.690;2023-03-23T03:52:24;7.17;;;6.47;;
13291;SDS011;6714;53.056;8.690;2023-03-23T03:55:27;6.73;;;6.13;;
13291;SDS011;6714;53.056;8.690;2023-03-23T03:58:15;8.80;;;7.83;;
13291;SDS011;6714;53.056;8.690;2023-03-23T04:03:59;7.03;;;5.93;;
13291;SDS011;6714;53.056;8.690;2023-03-23T04:07:00;6.10;;;5.43;;
13291;SDS011;6714;53.056;8.690;2023-03-23T04:10:04;6.57;;;5.93;;
13291;SDS011;6714;53.056;8.690;2023-03-23T04:12:47;6.10;;;5.57;;
13291;SDS011;6714;53.056;8.690;2023-03-23T04:15:43;5.83;;;5.33;;
13291;SDS011;6714;53.056;8.690;2023-03-23T04:18:26;5.77;;;5.10;;
13291;SDS011;6714;53.056;8.690;2023-03-23T04:21:11;5.30;;;4.70;;
13291;SDS011;6714;53.056;8.690;2023-03-23T04:23:54;6.23;;;5.63;;
13291;SDS011;6714;53.056;8.690;2023-03-23T04:26:39;7.03;;;6.33;;
13291;SDS011;6714;53.056;8.690;2023-03-23T04:29:22;5.40;;;4.90;;
13291;SDS011;6714;53.056;8.690;2023-03-23T04:32:04;5.37;;;4.73;;
13291;SDS011;6714;53.056;8.690;2023-03-23T04:34:48;4.70;;;4.40;;
13291;SDS011;6714;53.056;8.690;2023-03-23T04:37:32;6.43;;;5.83;;
13291;SDS011;6714;53.056;8.690;2023-03-23T04:40:36;5.27;;;4.77;;
13291;SDS011;6714;53.056;8.690;2023-03-23T04:43:19;4.93;;;4.43;;
13291;SDS011;6714;53.056;8.690;2023-03-23T04:46:02;5.03;;;4.50;;
13291;SDS011;6714;53.056;8.690;2023-03-23T04:48:49;4.80;;;4.33;;
13291;SDS011;6714;53.056;8.690;2023-03-23T04:51:31;6.23;;;5.10;;
13291;SDS011;6714;53.056;8.690;2023-03-23T04:54:17;4.90;;;4.43;;
13291;SDS011;6714;53.056;8.690;2023-03-23T05:00:20;5.90;;;5.10;;
13291;SDS011;6714;53.056;8.690;2023-03-23T05:03:03;5.60;;;4.70;;
13291;SDS011;6714;53.056;8.690;2023-03-23T05:05:47;6.07;;;5.47;;
13291;SDS011;6714;53.056;8.690;2023-03-23T05:08:32;4.17;;;3.60;;
13291;SDS011;6714;53.056;8.690;2023-03-23T05:11:22;4.20;;;3.80;;
13291;SDS011;6714;53.056;8.690;2023-03-23T05:14:06;5.00;;;4.00;;
13291;SDS011;6714;53.056;8.690;2023-03-23T05:16:48;3.80;;;3.50;;
13291;SDS011;6714;53.056;8.690;2023-03-23T05:22:45;3.90;;;3.43;;
13291;SDS011;6714;53.056;8.690;2023-03-23T05:25:29;4.20;;;3.80;;
13291;SDS011;6714;53.056;8.690;2023-03-23T05:28:14;5.83;;;5.23;;
13291;SDS011;6714;53.056;8.690;2023-03-23T05:34:17;4.27;;;3.87;;
13291;SDS011;6714;53.056;8.690;2023-03-23T05:36:59;3.90;;;3.60;;
13291;SDS011;6714;53.056;8.690;2023-03-23T05:39:42;4.63;;;4.23;;
13291;SDS011;6714;53.056;8.690;2023-03-23T05:42:25;3.53;;;3.23;;
13291;SDS011;6714;53.056;8.690;2023-03-23T05:45:09;4.10;;;3.70;;
13291;SDS011;6714;53.056;8.690;2023-03-23T05:47:52;3.90;;;3.60;;
13291;SDS011;6714;53.056;8.690;2023-03-23T05:50:34;4.10;;;3.80;;
13291;SDS011;6714;53.056;8.690;2023-03-23T05:53:17;3.77;;;3.40;;
13291;SDS011;6714;53.056;8.690;2023-03-23T05:55:59;3.83;;;3.47;;
13291;SDS011;6714;53.056;8.690;2023-03-23T05:58:41;6.10;;;5.17;;
13291;SDS011;6714;53.056;8.690;2023-03-23T06:01:26;4.70;;;4.20;;
13291;SDS011;6714;53.056;8.690;2023-03-23T06:04:08;4.90;;;4.37;;
13291;SDS011;6714;53.056;8.690;2023-03-23T06:06:53;4.30;;;3.90;;
13291;SDS011;6714;53.056;8.690;2023-03-23T06:09:36;5.47;;;3.97;;
13291;SDS011;6714;53.056;8.690;2023-03-23T06:12:18;4.63;;;3.10;;
13291;SDS011;6714;53.056;8.690;2023-03-23T06:15:22;5.43;;;4.13;;
13291;SDS011;6714;53.056;8.690;2023-03-23T06:18:06;5.73;;;4.73;;
13291;SDS011;6714;53.056;8.690;2023-03-23T06:20:48;3.30;;;3.00;;
13291;SDS011;6714;53.056;8.690;2023-03-23T06:23:31;4.50;;;3.87;;
13291;SDS011;6714;53.056;8.690;2023-03-23T06:26:14;3.47;;;3.10;;
13291;SDS011;6714;53.056;8.690;2023-03-23T06:28:57;4.20;;;3.90;;
13291;SDS011;6714;53.056;8.690;2023-03-23T06:51:29;3.57;;;3.33;;
13291;SDS011;6714;53.056;8.690;2023-03-23T06:54:11;5.17;;;4.57;;
13291;SDS011;6714;53.056;8.690;2023-03-23T06:56:53;4.10;;;3.80;;
13291;SDS011;6714;53.056;8.690;2023-03-23T06:59:36;3.90;;;3.60;;
13291;SDS011;6714;53.056;8.690;2023-03-23T07:02:18;6.30;;;5.70;;
13291;SDS011;6714;53.056;8.690;2023-03-23T07:05:00;6.43;;;5.80;;
13291;SDS011;6714;53.056;8.690;2023-03-23T07:07:44;3.67;;;3.37;;
13291;SDS011;6714;53.056;8.690;2023-03-23T07:10:27;5.33;;;4.83;;
13291;SDS011;6714;53.056;8.690;2023-03-23T07:13:09;6.30;;;5.60;;
13291;SDS011;6714;53.056;8.690;2023-03-23T07:15:51;5.27;;;4.70;;
13291;SDS011;6714;53.056;8.690;2023-03-23T07:18:34;6.33;;;5.03;;
13291;SDS011;6714;53.056;8.690;2023-03-23T07:21:17;4.83;;;4.43;;
13291;SDS011;6714;53.056;8.690;2023-03-23T07:24:00;7.80;;;7.00;;
13291;SDS011;6714;53.056;8.690;2023-03-23T07:26:43;3.57;;;3.27;;
13291;SDS011;6714;53.056;8.690;2023-03-23T07:29:25;5.80;;;5.27;;
13291;SDS011;6714;53.056;8.690;2023-03-23T07:32:08;4.43;;;3.70;;
13291;SDS011;6714;53.056;8.690;2023-03-23T07:34:51;4.40;;;4.00;;
13291;SDS011;6714;53.056;8.690;2023-03-23T07:37:34;4.97;;;4.33;;
13291;SDS011;6714;53.056;8.690;2023-03-23T07:40:18;4.40;;;4.00;;
13291;SDS011;6714;53.056;8.690;2023-03-23T07:43:02;3.70;;;3.37;;
13291;SDS011;6714;53.056;8.690;2023-03-23T07:45:44;3.67;;;2.90;;
13291;SDS011;6714;53.056;8.690;2023-03-23T07:48:27;3.53;;;2.87;;
13291;SDS011;6714;53.056;8.690;2023-03-23T07:51:09;2.73;;;2.47;;
13291;SDS011;6714;53.056;8.690;2023-03-23T07:53:51;2.60;;;2.40;;
13291;SDS011;6714;53.056;8.690;2023-03-23T07:56:36;2.60;;;2.40;;
13291;SDS011;6714;53.056;8.690;2023-03-23T07:59:19;2.60;;;2.40;;
13291;SDS011;6714;53.056;8.690;2023-03-23T08:02:02;2.63;;;2.40;;
13291;SDS011;6714;53.056;8.690;2023-03-23T08:04:44;2.60;;;2.00;;
13291;SDS011;6714;53.056;8.690;2023-03-23T08:07:27;3.77;;;2.40;;
13291;SDS011;6714;53.056;8.690;2023-03-23T08:10:10;2.53;;;2.17;;
13291;SDS011;6714;53.056;8.690;2023-03-23T08:12:55;3.43;;;2.40;;
13291;SDS011;6714;53.056;8.690;2023-03-23T08:15:39;2.27;;;1.90;;
13291;SDS011;6714;53.056;8.690;2023-03-23T08:18:21;2.13;;;1.97;;
13291;SDS011;6714;53.056;8.690;2023-03-23T08:21:05;2.67;;;2.20;;
13291;SDS011;6714;53.056;8.690;2023-03-23T08:23:48;2.33;;;1.97;;
13291;SDS011;6714;53.056;8.690;2023-03-23T08:26:30;4.93;;;2.30;;
13291;SDS011;6714;53.056;8.690;2023-03-23T08:29:14;2.20;;;2.00;;
13291;SDS011;6714;53.056;8.690;2023-03-23T08:31:56;3.10;;;2.30;;
13291;SDS011;6714;53.056;8.690;2023-03-23T08:34:39;5.23;;;2.07;;
13291;SDS011;6714;53.056;8.690;2023-03-23T08:37:22;3.97;;;2.10;;
13291;SDS011;6714;53.056;8.690;2023-03-23T08:40:05;2.80;;;1.97;;
13291;SDS011;6714;53.056;8.690;2023-03-23T08:42:51;4.03;;;2.27;;
13291;SDS011;6714;53.056;8.690;2023-03-23T08:45:34;2.67;;;2.00;;
13291;SDS011;6714;53.056;8.690;2023-03-23T08:48:17;4.57;;;2.23;;
13291;SDS011;6714;53.056;8.690;2023-03-23T08:50:59;2.83;;;2.03;;
13291;SDS011;6714;53.056;8.690;2023-03-23T08:53:41;5.60;;;2.57;;
13291;SDS011;6714;53.056;8.690;2023-03-23T08:56:23;4.87;;;2.60;;
13291;SDS011;6714;53.056;8.690;2023-03-23T08:59:06;7.60;;;2.80;;
13291;SDS011;6714;53.056;8.690;2023-03-23T09:01:50;4.70;;;2.30;;
13291;SDS011;6714;53.056;8.690;2023-03-23T09:04:32;4.10;;;2.50;;
13291;SDS011;6714;53.056;8.690;2023-03-23T09:07:15;3.03;;;2.50;;
13291;SDS011;6714;53.056;8.690;2023-03-23T09:09:57;4.83;;;2.30;;
13291;SDS011;6714;53.056;8.690;2023-03-23T09:12:39;5.03;;;2.60;;
13291;SDS011;6714;53.056;8.690;2023-03-23T09:15:22;5.70;;;2.63;;
13291;SDS011;6714;53.056;8.690;2023-03-23T09:18:06;3.90;;;2.03;;
13291;SDS011;6714;53.056;8.690;2023-03-23T09:20:48;5.67;;;2.60;;
13291;SDS011;6714;53.056;8.690;2023-03-23T09:23:31;5.30;;;2.27;;
13291;SDS011;6714;53.056;8.690;2023-03-23T09:26:13;5.13;;;2.67;;
13291;SDS011;6714;53.056;8.690;2023-03-23T09:28:55;2.70;;;2.00;;
13291;SDS011;6714;53.056;8.690;2023-03-23T09:31:38;3.50;;;2.10;;
13291;SDS011;6714;53.056;8.690;2023-03-23T09:34:23;2.13;;;1.93;;
13291;SDS011;6714;53.056;8.690;2023-03-23T09:37:05;4.67;;;2.10;;
13291;SDS011;6714;53.056;8.690;2023-03-23T09:39:48;5.40;;;2.20;;
13291;SDS011;6714;53.056;8.690;2023-03-23T09:42:36;2.93;;;2.10;;
13291;SDS011;6714;53.056;8.690;2023-03-23T09:45:19;3.50;;;2.00;;
13291;SDS011;6714;53.056;8.690;2023-03-23T09:48:09;5.10;;;2.40;;
13291;SDS011;6714;53.056;8.690;2023-03-23T09:50:58;2.90;;;2.20;;
13291;SDS011;6714;53.056;8.690;2023-03-23T09:53:42;4.73;;;2.23;;
13291;SDS011;6714;53.056;8.690;2023-03-23T09:56:25;2.37;;;1.90;;
13291;SDS011;6714;53.056;8.690;2023-03-23T09:59:10;5.00;;;2.40;;
13291;SDS011;6714;53.056;8.690;2023-03-23T10:01:55;3.97;;;2.40;;
13291;SDS011;6714;53.056;8.690;2023-03-23T10:04:41;4.37;;;2.20;;
13291;SDS011;6714;53.056;8.690;2023-03-23T10:07:27;4.73;;;2.43;;
13291;SDS011;6714;53.056;8.690;2023-03-23T10:10:11;3.27;;;2.23;;
13291;SDS011;6714;53.056;8.690;2023-03-23T10:12:55;2.70;;;2.03;;
13291;SDS011;6714;53.056;8.690;2023-03-23T10:15:38;7.03;;;2.90;;
13291;SDS011;6714;53.056;8.690;2023-03-23T10:18:23;3.63;;;2.23;;
13291;SDS011;6714;53.056;8.690;2023-03-23T10:21:07;3.70;;;2.33;;
13291;SDS011;6714;53.056;8.690;2023-03-23T10:23:56;3.23;;;2.30;;
13291;SDS011;6714;53.056;8.690;2023-03-23T10:26:42;2.50;;;2.00;;
13291;SDS011;6714;53.056;8.690;2023-03-23T10:29:28;4.57;;;2.40;;
13291;SDS011;6714;53.056;8.690;2023-03-23T10:32:11;4.47;;;2.70;;
13291;SDS011;6714;53.056;8.690;2023-03-23T10:34:55;4.67;;;2.50;;
13291;SDS011;6714;53.056;8.690;2023-03-23T10:37:38;4.87;;;2.43;;
13291;SDS011;6714;53.056;8.690;2023-03-23T10:40:24;6.43;;;2.70;;
13291;SDS011;6714;53.056;8.690;2023-03-23T10:43:07;3.13;;;2.37;;
13291;SDS011;6714;53.056;8.690;2023-03-23T10:45:57;3.53;;;2.13;;
13291;SDS011;6714;53.056;8.690;2023-03-23T10:48:41;2.60;;;2.20;;
13291;SDS011;6714;53.056;8.690;2023-03-23T10:51:25;4.03;;;2.40;;
13291;SDS011;6714;53.056;8.690;2023-03-23T10:54:09;4.80;;;2.33;;
13291;SDS011;6714;53.056;8.690;2023-03-23T10:56:53;4.87;;;2.50;;
13291;SDS011;6714;53.056;8.690;2023-03-23T10:59:39;4.63;;;2.30;;
13291;SDS011;6714;53.056;8.690;2023-03-23T11:02:21;6.47;;;2.80;;
13291;SDS011;6714;53.056;8.690;2023-03-23T11:05:07;5.27;;;2.50;;
13291;SDS011;6714;53.056;8.690;2023-03-23T11:07:52;6.63;;;2.57;;
13291;SDS011;6714;53.056;8.690;2023-03-23T11:10:35;4.67;;;2.70;;
13291;SDS011;6714;53.056;8.690;2023-03-23T11:13:21;4.80;;;2.90;;
13291;SDS011;6714;53.056;8.690;2023-03-23T11:16:04;4.03;;;2.70;;
13291;SDS011;6714;53.056;8.690;2023-03-23T11:18:46;4.63;;;2.57;;
13291;SDS011;6714;53.056;8.690;2023-03-23T11:21:29;3.50;;;2.20;;
13291;SDS011;6714;53.056;8.690;2023-03-23T11:24:13;4.70;;;2.87;;
13291;SDS011;6714;53.056;8.690;2023-03-23T11:26:56;3.77;;;2.50;;
13291;SDS011;6714;53.056;8.690;2023-03-23T11:29:46;4.60;;;2.70;;
13291;SDS011;6714;53.056;8.690;2023-03-23T11:32:29;2.90;;;2.20;;
13291;SDS011;6714;53.056;8.690;2023-03-23T11:35:15;4.70;;;2.43;;
13291;SDS011;6714;53.056;8.690;2023-03-23T11:37:58;2.30;;;2.00;;
13291;SDS011;6714;53.056;8.690;2023-03-23T11:40:43;5.67;;;2.63;;
13291;SDS011;6714;53.056;8.690;2023-03-23T11:43:26;4.10;;;2.50;;
13291;SDS011;6714;53.056;8.690;2023-03-23T11:46:11;5.37;;;2.50;;
13291;SDS011;6714;53.056;8.690;2023-03-23T11:48:56;4.83;;;2.57;;
13291;SDS011;6714;53.056;8.690;2023-03-23T11:51:41;4.43;;;2.50;;
13291;SDS011;6714;53.056;8.690;2023-03-23T11:54:28;4.90;;;2.53;;
13291;SDS011;6714;53.056;8.690;2023-03-23T11:57:11;4.00;;;2.57;;
13291;SDS011;6714;53.056;8.690;2023-03-23T11:59:54;4.00;;;2.87;;
13291;SDS011;6714;53.056;8.690;2023-03-23T12:05:45;2.43;;;2.23;;
13291;SDS011;6714;53.056;8.690;2023-03-23T12:11:27;5.03;;;2.57;;
13291;SDS011;6714;53.056;8.690;2023-03-23T12:14:15;4.23;;;2.20;;
13291;SDS011;6714;53.056;8.690;2023-03-23T12:17:03;4.60;;;2.33;;
13291;SDS011;6714;53.056;8.690;2023-03-23T12:19:51;2.47;;;2.20;;
13291;SDS011;6714;53.056;8.690;2023-03-23T12:22:39;3.90;;;2.43;;
13291;SDS011;6714;53.056;8.690;2023-03-23T12:25:33;3.43;;;2.00;;
13291;SDS011;6714;53.056;8.690;2023-03-23T12:28:22;2.70;;;2.17;;
13291;SDS011;6714;53.056;8.690;2023-03-23T12:31:10;4.80;;;2.33;;
13291;SDS011;6714;53.056;8.690;2023-03-23T12:33:54;2.10;;;1.90;;
13291;SDS011;6714;53.056;8.690;2023-03-23T12:36:41;3.03;;;1.67;;
13291;SDS011;6714;53.056;8.690;2023-03-23T12:39:37;3.23;;;1.90;;
13291;SDS011;6714;53.056;8.690;2023-03-23T12:42:26;2.10;;;1.70;;
13291;SDS011;6714;53.056;8.690;2023-03-23T12:45:14;3.47;;;1.80;;
13291;SDS011;6714;53.056;8.690;2023-03-23T12:48:02;2.50;;;1.77;;
13291;SDS011;6714;53.056;8.690;2023-03-23T12:50:46;2.30;;;1.80;;
13291;SDS011;6714;53.056;8.690;2023-03-23T12:53:30;2.23;;;1.70;;
13291;SDS011;6714;53.056;8.690;2023-03-23T12:56:16;4.27;;;1.80;;
13291;SDS011;6714;53.056;8.690;2023-03-23T12:59:01;3.57;;;2.03;;
13291;SDS011;6714;53.056;8.690;2023-03-23T13:01:47;2.27;;;1.70;;
13291;SDS011;6714;53.056;8.690;2023-03-23T13:04:31;1.70;;;1.30;;
13291;SDS011;6714;53.056;8.690;2023-03-23T13:07:21;1.90;;;1.70;;
13291;SDS011;6714;53.056;8.690;2023-03-23T13:10:05;2.10;;;1.60;;
13291;SDS011;6714;53.056;8.690;2023-03-23T13:12:51;1.53;;;1.37;;
13291;SDS011;6714;53.056;8.690;2023-03-23T13:15:35;1.73;;;1.40;;
13291;SDS011;6714;53.056;8.690;2023-03-23T13:18:23;1.77;;;1.40;;
13291;SDS011;6714;53.056;8.690;2023-03-23T13:21:09;2.23;;;1.47;;
13291;SDS011;6714;53.056;8.690;2023-03-23T13:23:56;2.07;;;1.50;;
13291;SDS011;6714;53.056;8.690;2023-03-23T13:26:40;2.30;;;1.57;;
13291;SDS011;6714;53.056;8.690;2023-03-23T13:29:24;2.90;;;1.60;;
13291;SDS011;6714;53.056;8.690;2023-03-23T13:32:10;2.80;;;1.70;;
13291;SDS011;6714;53.056;8.690;2023-03-23T13:34:53;3.17;;;1.73;;
13291;SDS011;6714;53.056;8.690;2023-03-23T13:37:35;3.23;;;1.87;;
13291;SDS011;6714;53.056;8.690;2023-03-23T13:40:24;1.57;;;1.27;;
13291;SDS011;6714;53.056;8.690;2023-03-23T13:43:08;3.60;;;1.30;;
13291;SDS011;6714;53.056;8.690;2023-03-23T13:45:52;2.73;;;1.40;;
13291;SDS011;6714;53.056;8.690;2023-03-23T13:48:40;2.80;;;1.40;;
13291;SDS011;6714;53.056;8.690;2023-03-23T13:51:25;3.90;;;1.37;;
13291;SDS011;6714;53.056;8.690;2023-03-23T13:54:20;3.17;;;1.57;;
13291;SDS011;6714;53.056;8.690;2023-03-23T13:57:18;3.07;;;1.30;;
13291;SDS011;6714;53.056;8.690;2023-03-23T14:00:09;3.50;;;1.30;;
13291;SDS011;6714;53.056;8.690;2023-03-23T14:02:59;3.63;;;1.37;;
13291;SDS011;6714;53.056;8.690;2023-03-23T14:05:43;4.80;;;1.60;;
13291;SDS011;6714;53.056;8.690;2023-03-23T14:08:36;1.73;;;1.40;;
13291;SDS011;6714;53.056;8.690;2023-03-23T14:11:19;1.97;;;1.40;;
13291;SDS011;6714;53.056;8.690;2023-03-23T14:14:03;1.50;;;1.30;;
13291;SDS011;6714;53.056;8.690;2023-03-23T14:16:49;2.47;;;1.37;;
13291;SDS011;6714;53.056;8.690;2023-03-23T14:19:36;2.83;;;1.50;;
13291;SDS011;6714;53.056;8.690;2023-03-23T14:22:22;3.77;;;1.60;;
13291;SDS011;6714;53.056;8.690;2023-03-23T14:25:12;1.83;;;1.30;;
13291;SDS011;6714;53.056;8.690;2023-03-23T14:27:55;2.33;;;1.43;;
13291;SDS011;6714;53.056;8.690;2023-03-23T14:30:37;3.00;;;1.33;;
13291;SDS011;6714;53.056;8.690;2023-03-23T14:33:19;2.17;;;1.13;;
13291;SDS011;6714;53.056;8.690;2023-03-23T14:36:04;2.80;;;1.50;;
13291;SDS011;6714;53.056;8.690;2023-03-23T14:38:46;2.90;;;1.60;;
13291;SDS011;6714;53.056;8.690;2023-03-23T14:41:29;2.60;;;1.50;;
13291;SDS011;6714;53.056;8.690;2023-03-23T14:44:13;1.60;;;1.50;;
13291;SDS011;6714;53.056;8.690;2023-03-23T14:46:56;1.50;;;1.40;;
13291;SDS011;6714;53.056;8.690;2023-03-23T14:49:40;2.00;;;1.50;;
13291;SDS011;6714;53.056;8.690;2023-03-23T14:52:25;3.43;;;1.70;;
13291;SDS011;6714;53.056;8.690;2023-03-23T14:55:10;3.20;;;1.53;;
13291;SDS011;6714;53.056;8.690;2023-03-23T14:57:53;3.77;;;1.80;;
13291;SDS011;6714;53.056;8.690;2023-03-23T15:00:36;3.00;;;1.50;;
13291;SDS011;6714;53.056;8.690;2023-03-23T15:03:20;4.17;;;1.57;;
13291;SDS011;6714;53.056;8.690;2023-03-23T15:06:04;2.27;;;1.47;;
13291;SDS011;6714;53.056;8.690;2023-03-23T15:08:49;1.80;;;1.27;;
13291;SDS011;6714;53.056;8.690;2023-03-23T15:11:32;4.77;;;1.90;;
13291;SDS011;6714;53.056;8.690;2023-03-23T15:14:16;6.53;;;1.87;;
13291;SDS011;6714;53.056;8.690;2023-03-23T15:17:00;2.90;;;1.63;;
13291;SDS011;6714;53.056;8.690;2023-03-23T15:19:43;3.27;;;1.60;;
13291;SDS011;6714;53.056;8.690;2023-03-23T15:22:26;5.10;;;1.90;;
13291;SDS011;6714;53.056;8.690;2023-03-23T15:25:11;3.07;;;1.90;;
13291;SDS011;6714;53.056;8.690;2023-03-23T15:27:56;3.40;;;1.77;;
13291;SDS011;6714;53.056;8.690;2023-03-23T15:30:46;3.10;;;2.00;;
13291;SDS011;6714;53.056;8.690;2023-03-23T15:33:33;3.90;;;1.80;;
13291;SDS011;6714;53.056;8.690;2023-03-23T15:36:17;3.37;;;2.00;;
13291;SDS011;6714;53.056;8.690;2023-03-23T15:39:00;2.63;;;1.40;;
13291;SDS011;6714;53.056;8.690;2023-03-23T15:41:48;2.73;;;1.53;;
13291;SDS011;6714;53.056;8.690;2023-03-23T15:44:31;3.10;;;1.70;;
13291;SDS011;6714;53.056;8.690;2023-03-23T15:47:14;3.70;;;2.00;;
13291;SDS011;6714;53.056;8.690;2023-03-23T15:50:02;4.00;;;1.57;;
13291;SDS011;6714;53.056;8.690;2023-03-23T15:52:45;2.30;;;1.70;;
13291;SDS011;6714;53.056;8.690;2023-03-23T15:55:28;2.57;;;1.70;;
13291;SDS011;6714;53.056;8.690;2023-03-23T15:58:12;2.40;;;1.70;;
13291;SDS011;6714;53.056;8.690;2023-03-23T16:00:55;4.13;;;1.57;;
13291;SDS011;6714;53.056;8.690;2023-03-23T16:03:38;2.90;;;1.47;;
13291;SDS011;6714;53.056;8.690;2023-03-23T16:06:22;3.90;;;1.60;;
13291;SDS011;6714;53.056;8.690;2023-03-23T16:09:05;3.50;;;1.37;;
13291;SDS011;6714;53.056;8.690;2023-03-23T16:11:50;2.43;;;1.30;;
13291;SDS011;6714;53.056;8.690;2023-03-23T16:14:33;4.17;;;1.60;;
13291;SDS011;6714;53.056;8.690;2023-03-23T16:17:17;3.33;;;1.53;;
13291;SDS011;6714;53.056;8.690;2023-03-23T16:20:00;2.63;;;1.40;;
13291;SDS011;6714;53.056;8.690;2023-03-23T16:22:43;2.70;;;1.40;;
13291;SDS011;6714;53.056;8.690;2023-03-23T16:25:25;4.23;;;1.67;;
13291;SDS011;6714;53.056;8.690;2023-03-23T16:28:08;4.07;;;1.80;;
13291;SDS011;6714;53.056;8.690;2023-03-23T16:30:53;2.63;;;1.33;;
13291;SDS011;6714;53.056;8.690;2023-03-23T16:33:35;3.13;;;1.37;;
13291;SDS011;6714;53.056;8.690;2023-03-23T16:36:17;2.73;;;1.53;;
13291;SDS011;6714;53.056;8.690;2023-03-23T16:38:59;3.00;;;1.60;;
13291;SDS011;6714;53.056;8.690;2023-03-23T16:41:42;2.63;;;1.40;;
13291;SDS011;6714;53.056;8.690;2023-03-23T16:44:24;3.27;;;1.40;;
13291;SDS011;6714;53.056;8.690;2023-03-23T16:47:08;3.47;;;1.53;;
13291;SDS011;6714;53.056;8.690;2023-03-23T16:49:50;2.93;;;1.60;;
13291;SDS011;6714;53.056;8.690;2023-03-23T16:52:33;2.77;;;1.40;;
13291;SDS011;6714;53.056;8.690;2023-03-23T16:55:15;3.13;;;1.60;;
13291;SDS011;6714;53.056;8.690;2023-03-23T16:57:58;3.33;;;1.57;;
13291;SDS011;6714;53.056;8.690;2023-03-23T17:00:40;3.53;;;1.37;;
13291;SDS011;6714;53.056;8.690;2023-03-23T17:03:24;2.80;;;1.40;;
13291;SDS011;6714;53.056;8.690;2023-03-23T17:06:06;2.80;;;1.50;;
13291;SDS011;6714;53.056;8.690;2023-03-23T17:08:50;3.00;;;1.50;;
13291;SDS011;6714;53.056;8.690;2023-03-23T17:11:32;3.03;;;1.40;;
13291;SDS011;6714;53.056;8.690;2023-03-23T17:14:15;3.20;;;1.30;;
13291;SDS011;6714;53.056;8.690;2023-03-23T17:16:57;2.87;;;1.70;;
13291;SDS011;6714;53.056;8.690;2023-03-23T17:19:41;1.50;;;1.30;;
13291;SDS011;6714;53.056;8.690;2023-03-23T17:22:23;2.40;;;1.30;;
13291;SDS011;6714;53.056;8.690;2023-03-23T17:25:06;2.23;;;1.43;;
13291;SDS011;6714;53.056;8.690;2023-03-23T17:27:49;2.20;;;1.40;;
13291;SDS011;6714;53.056;8.690;2023-03-23T17:30:31;2.60;;;1.50;;